Osborn, MO (64474)

6:20 AM CDT on October 24, 2014 (GMT -0500)
Stewartsville C-2 Schools | Change Station
CLOSE
Current Station
Personal Weather Station
Location: Stewartsville, MO
Elevation: 994 ft
Nearby Weather Stations
Active Advisory: Dense Fog Advisory

Elev 994 ft 39.75 °N, 94.50 °W | Updated 6 seconds ago

Fog
Fog
56.3 °F
Feels Like 56.3 °F
N
1.1
Wind Variable Wind from SSE
Gusts 3.4 mph

Today
High -- | Low -- °F
--% Chance of Precip.
Yesterday
High -- | Low -- °F
Precip. -- in
7:37 AM 6:25 PM
New Moon, 0% visible
Pressure 30.06 in
Visibility 0.5 miles
Clouds Overcast 100 ft
Dew Point 54 °F
Humidity 93%
Rainfall 0.00 in
Snow Depth Not available.
UV 0 out of 12
Pollen 3.70 out of 12
Air Quality Not available.
Flu Activity No Activity
METAR KGPH 241115Z AUTO 00000KT 1/2SM FG OVC001 13/13 A3006 RMK AO2

More Conditions Fewer Conditions

Pressure 30.06 in
Visibility 0.5 miles
Clouds Overcast 100 ft
Dew Point 54 °F
Humidity 93%
Rainfall 0.00 in
Snow Depth Not available.
UV 0 out of 12
Pollen 3.70 out of 12
Air Quality Not available.
Flu Activity No Activity
METAR KGPH 241115Z AUTO 00000KT 1/2SM FG OVC001 13/13 A3006 RMK AO2

More Conditions Fewer Conditions

10-Day Weather Forecast

Almanac

Astronomy

Oct. 24, 2014 Rise Set
Actual Time 7:37 AM CDT 6:25 PM CDT
Civil Twilight 7:09 AM CDT 6:52 PM CDT
Nautical Twilight 6:37 AM CDT 7:24 PM CDT
Astronomical Twilight 6:06 AM CDT 7:55 PM CDT
Moon 8:16 AM CDT 7:05 PM CDT
Length of Visible Light 11h 43m
Length of Day
10h 48m
Tomorrow will be 2m 24s shorter.
New Moon, 0% of the Moon is Illuminated
Today
New Moon
Oct 30
First Quarter
Nov 6
Full
Nov 14
Last Quarter
Nov 22
New

Today's Extremes

State Highs State Lows

Community

WunderPhotos

Upload Photos

1,764,525 photos uploaded!

WunderBlogs® & News

Nearby

Snow Depth

Station Depth Elevation
No new snow has been reported.

Earthquake Activity

City Distance Mag. Time & Date
No recent earthquake activity has been reported nearby.
Minimum magnitude displayed is 2.5.

Coastal Water Temperatures

Place Temperature
No Stations Reporting

Nearby Weather Stations